Time;durP1;ratioP1;P1;durP2;ratioP2;P2;SDS_P1;SDS_P2;PMS_P1;PMS_P2;Temp;Humidity;BMP_temperature;BMP_pressure;BME280_temperature;BME280_humidity;BME280_pressure;Samples;Min_cycle;Max_cycle;Signal;HPM_P1;HPM_P2
2022/12/27 00:02:15;;;;;;;0.85;0.80;;;17.60;49.10;;;;;;4970366;28;20264;-82
2022/12/27 00:04:41;;;;;;;1.10;1.00;;;17.50;49.10;;;;;;4954501;28;20160;-81
2022/12/27 00:07:09;;;;;;;1.35;1.20;;;17.60;49.20;;;;;;4953903;28;20716;-81
2022/12/27 00:09:35;;;;;;;1.48;1.13;;;17.60;49.10;;;;;;4954334;28;20173;-81
2022/12/27 00:12:00;;;;;;;1.00;0.90;;;17.60;49.10;;;;;;4954058;28;20663;-82
2022/12/27 00:14:27;;;;;;;1.10;1.00;;;17.50;49.10;;;;;;4954340;28;20176;-82
2022/12/27 00:16:53;;;;;;;1.30;1.20;;;17.50;49.20;;;;;;4938958;28;20180;-81
2022/12/27 00:19:18;;;;;;;1.05;0.95;;;17.60;49.10;;;;;;4938811;28;20200;-82
2022/12/27 00:21:44;;;;;;;1.00;0.90;;;17.60;49.20;;;;;;4938238;28;20164;-81
2022/12/27 00:24:12;;;;;;;1.20;0.90;;;17.60;49.90;;;;;;4970392;28;20161;-81
2022/12/27 00:26:38;;;;;;;1.08;0.95;;;17.50;49.20;;;;;;4969369;28;20259;-80
2022/12/27 00:29:04;;;;;;;1.13;0.90;;;17.50;49.10;;;;;;4954246;28;20180;-81
2022/12/27 00:31:30;;;;;;;1.35;1.00;;;17.50;49.10;;;;;;4937920;28;20204;-80
2022/12/27 00:33:58;;;;;;;1.13;0.93;;;17.60;49.30;;;;;;4937811;28;20669;-82
2022/12/27 00:36:27;;;;;;;1.13;0.95;;;17.60;49.20;;;;;;4953632;28;20223;-81
2022/12/27 00:38:56;;;;;;;1.20;0.95;;;17.50;49.30;;;;;;4938455;28;20193;-82
2022/12/27 00:41:23;;;;;;;1.00;0.90;;;17.60;49.30;;;;;;4969916;28;20157;-83
2022/12/27 00:43:48;;;;;;;1.23;1.08;;;17.50;49.40;;;;;;4954409;28;20172;-81
2022/12/27 00:46:15;;;;;;;0.90;0.90;;;17.50;49.40;;;;;;4938453;28;20165;-80
2022/12/27 00:48:41;;;;;;;1.20;1.10;;;17.50;49.40;;;;;;4970499;28;20574;-81
2022/12/27 00:51:12;;;;;;;0.75;0.73;;;17.50;49.40;;;;;;4969104;28;20165;-82
2022/12/27 00:53:39;;;;;;;1.10;1.00;;;17.40;49.40;;;;;;4938092;28;20192;-82
2022/12/27 00:56:08;;;;;;;1.35;1.15;;;17.50;49.50;;;;;;4953896;28;20165;-81
2022/12/27 00:58:36;;;;;;;1.60;1.10;;;17.40;49.30;;;;;;4937938;28;20204;-81
2022/12/27 01:01:11;;;;;;;1.17;1.08;;;17.50;49.50;;;;;;4953328;28;20232;-82
2022/12/27 01:03:39;;;;;;;0.80;0.77;;;17.40;49.70;;;;;;4937688;28;20192;-81
2022/12/27 01:06:07;;;;;;;1.02;0.90;;;17.40;49.70;;;;;;4954002;28;20161;-81
2022/12/27 01:08:34;;;;;;;1.15;1.05;;;17.40;49.60;;;;;;4938693;28;20663;-81
2022/12/27 01:11:00;;;;;;;1.10;1.00;;;17.40;49.60;;;;;;4953908;28;20524;-81
2022/12/27 01:13:27;;;;;;;1.30;1.08;;;17.50;49.70;;;;;;4953793;28;20165;-81
2022/12/27 01:15:54;;;;;;;1.00;0.90;;;17.40;49.60;;;;;;4953704;28;20158;-82
2022/12/27 01:18:20;;;;;;;2.15;1.17;;;17.40;49.70;;;;;;4954613;28;20195;-82
2022/12/27 01:20:46;;;;;;;0.90;0.90;;;17.40;49.80;;;;;;4973267;28;20157;-81
2022/12/27 01:23:12;;;;;;;1.10;1.00;;;17.40;49.70;;;;;;4941479;28;20188;-82
2022/12/27 01:25:38;;;;;;;1.02;0.80;;;17.40;49.70;;;;;;4972848;28;20149;-81
2022/12/27 01:28:04;;;;;;;1.10;1.00;;;17.40;49.80;;;;;;4957206;28;20257;-82
2022/12/27 01:30:33;;;;;;;1.08;0.95;;;17.40;49.70;;;;;;4941610;28;20184;-81
2022/12/27 01:32:59;;;;;;;1.50;1.05;;;17.40;49.90;;;;;;4972643;28;20172;-82
2022/12/27 01:35:24;;;;;;;1.77;1.00;;;17.40;49.90;;;;;;4956499;28;20161;-81
2022/12/27 01:37:50;;;;;;;1.15;1.05;;;17.30;49.80;;;;;;4973770;28;20716;-81
2022/12/27 01:40:17;;;;;;;1.02;0.82;;;17.20;49.80;;;;;;4956278;28;20165;-81
2022/12/27 01:42:52;;;;;;;0.98;0.90;;;17.40;50.00;;;;;;4956132;28;20193;-81
2022/12/27 01:45:22;;;;;;;1.10;1.00;;;17.30;49.90;;;;;;4959206;28;20148;-81
2022/12/27 01:47:53;;;;;;;1.23;0.90;;;17.30;49.90;;;;;;4956389;28;20195;-82
2022/12/27 01:50:24;;;;;;;1.92;1.20;;;17.30;50.00;;;;;;4940892;28;20169;-82
2022/12/27 01:53:16;;;;;;;0.85;0.82;;;17.30;49.90;;;;;;4973505;28;20240;-82
2022/12/27 01:55:48;;;;;;;1.02;0.90;;;17.40;50.10;;;;;;4946237;28;20200;-81
2022/12/27 01:58:29;;;;;;;1.00;0.90;;;17.30;50.00;;;;;;4972181;28;20204;-82
2022/12/27 02:00:57;;;;;;;0.90;0.77;;;17.30;50.00;;;;;;4974135;28;20181;-82
2022/12/27 02:03:30;;;;;;;1.30;1.10;;;17.30;50.00;;;;;;4956223;28;20195;-81
2022/12/27 02:05:59;;;;;;;0.95;0.90;;;17.30;50.00;;;;;;4955369;28;20168;-81
2022/12/27 02:08:49;;;;;;;0.93;0.90;;;17.30;50.10;;;;;;4971848;28;20249;-82
2022/12/27 02:11:14;;;;;;;2.15;1.02;;;17.30;50.00;;;;;;4972226;28;20596;-81
2022/12/27 02:13:43;;;;;;;1.10;0.98;;;17.30;50.00;;;;;;4940111;28;20173;-81
2022/12/27 02:16:14;;;;;;;0.95;0.85;;;17.30;50.10;;;;;;4956376;28;20188;-82
2022/12/27 02:18:42;;;;;;;1.23;1.00;;;17.30;50.00;;;;;;4956202;28;20259;-81
2022/12/27 02:21:25;;;;;;;1.02;0.90;;;17.30;50.00;;;;;;4955706;28;20285;-81
2022/12/27 02:24:08;;;;;;;1.48;1.00;;;17.30;50.20;;;;;;4971945;28;20164;-82
2022/12/27 02:26:51;;;;;;;1.02;0.90;;;17.20;50.10;;;;;;4957337;28;20165;-81
2022/12/27 02:29:48;;;;;;;1.10;0.80;;;17.30;50.20;;;;;;4955852;28;20204;-82
2022/12/27 02:32:28;;;;;;;1.02;0.90;;;17.30;50.10;;;;;;4989058;28;20161;-81
2022/12/27 02:35:28;;;;;;;1.00;0.90;;;17.30;50.20;;;;;;4941849;28;20168;-81
2022/12/27 02:38:09;;;;;;;1.23;1.10;;;17.30;50.20;;;;;;4972225;28;20196;-81
2022/12/27 02:54:54;;;;;;;1.00;0.90;;;17.20;50.20;;;;;;4973452;28;20224;-81
2022/12/27 02:57:48;;;;;;;1.10;0.88;;;17.20;50.20;;;;;;4970704;28;20165;-81
2022/12/27 03:03:20;;;;;;;1.45;1.08;;;17.20;50.20;;;;;;4972990;28;20246;-81
2022/12/27 03:15:53;;;;;;;0.90;0.80;;;17.20;50.20;;;;;;4988391;28;20180;-81
2022/12/27 03:17:43;;;;;;;1.05;0.90;;;17.10;50.20;;;;;;4957859;28;20157;-82
2022/12/27 03:25:34;;;;;;;0.82;0.82;;;17.20;50.20;;;;;;4972580;28;20153;-82
2022/12/27 03:33:25;;;;;;;1.50;0.88;;;17.20;50.20;;;;;;4958390;28;20184;-81
2022/12/27 03:38:42;;;;;;;1.10;0.98;;;17.20;50.30;;;;;;4957733;28;20188;-81
2022/12/27 03:43:46;;;;;;;1.08;0.98;;;17.20;50.30;;;;;;4957557;28;20153;-81
2022/12/27 03:46:42;;;;;;;0.75;0.75;;;17.20;50.30;;;;;;4970534;28;20188;-81
2022/12/27 03:49:20;;;;;;;1.20;1.08;;;17.20;50.30;;;;;;4956847;28;20176;-81
2022/12/27 03:51:51;;;;;;;0.70;0.70;;;17.20;50.40;;;;;;4955008;28;20192;-82
2022/12/27 03:54:25;;;;;;;1.00;0.90;;;17.20;50.30;;;;;;4939125;28;20576;-82
2022/12/27 03:56:53;;;;;;;1.00;0.85;;;17.20;50.30;;;;;;4956127;28;20157;-81
2022/12/27 03:59:19;;;;;;;1.27;1.00;;;17.20;50.30;;;;;;4954611;28;20197;-81
2022/12/27 04:01:45;;;;;;;0.90;0.85;;;17.20;50.30;;;;;;4938874;28;20196;-81
2022/12/27 04:04:11;;;;;;;0.70;0.60;;;17.20;50.30;;;;;;4938311;28;20170;-81
2022/12/27 04:06:37;;;;;;;0.70;0.70;;;17.20;50.30;;;;;;4970015;28;20156;-81
2022/12/27 04:35:45;;;;;;;0.75;0.75;;;17.10;50.40;;;;;;4971764;28;20157;-81
2022/12/27 04:38:10;;;;;;;1.10;1.00;;;17.10;50.50;;;;;;4938095;28;20216;-81
2022/12/27 04:56:42;;;;;;;1.13;1.00;;;17.20;50.50;;;;;;4990496;28;20662;-81
2022/12/27 05:04:24;;;;;;;1.45;1.05;;;17.20;50.30;;;;;;4974156;28;20216;-81
2022/12/27 05:06:51;;;;;;;1.02;0.93;;;17.10;50.30;;;;;;4957643;28;20183;-82
2022/12/27 05:14:54;;;;;;;1.10;0.98;;;17.10;50.50;;;;;;4962571;28;20153;-82
2022/12/27 05:17:20;;;;;;;1.10;1.00;;;17.10;50.50;;;;;;4973044;28;20242;-81
2022/12/27 05:19:47;;;;;;;0.88;0.80;;;17.00;50.50;;;;;;4949145;28;20192;-82
2022/12/27 05:27:34;;;;;;;0.90;0.77;;;17.00;50.40;;;;;;4990073;28;20695;-81
2022/12/27 05:30:01;;;;;;;0.75;0.70;;;17.10;50.50;;;;;;4955944;28;20283;-81
2022/12/27 05:32:27;;;;;;;0.95;0.80;;;17.00;50.50;;;;;;4940706;28;20161;-82
2022/12/27 05:34:54;;;;;;;1.13;1.02;;;17.10;50.50;;;;;;4940682;28;20223;-81
2022/12/27 05:37:21;;;;;;;1.10;1.00;;;17.00;50.50;;;;;;4956531;28;20236;-81
2022/12/27 05:39:47;;;;;;;0.80;0.80;;;17.10;50.50;;;;;;4956921;28;20188;-81
2022/12/27 05:42:13;;;;;;;0.85;0.80;;;17.10;50.60;;;;;;4972985;28;20185;-81
2022/12/27 05:44:38;;;;;;;1.00;0.90;;;17.10;50.60;;;;;;4956685;28;20179;-81
2022/12/27 05:47:05;;;;;;;1.02;0.90;;;17.10;50.50;;;;;;4971767;28;20165;-81
2022/12/27 05:49:32;;;;;;;0.77;0.63;;;17.00;50.40;;;;;;4971802;28;20573;-81
2022/12/27 05:51:57;;;;;;;1.10;1.00;;;17.10;50.50;;;;;;4956241;28;20175;-82
2022/12/27 05:54:23;;;;;;;0.95;0.77;;;17.10;50.40;;;;;;4956603;28;20173;-81
2022/12/27 05:56:48;;;;;;;1.15;0.80;;;17.00;50.50;;;;;;4956324;28;20235;-81
2022/12/27 05:59:15;;;;;;;1.02;0.93;;;17.10;50.50;;;;;;4939957;28;20224;-81
2022/12/27 06:01:42;;;;;;;1.33;0.90;;;17.00;50.50;;;;;;4956501;28;20512;-81
2022/12/27 06:04:09;;;;;;;1.02;0.77;;;17.10;50.50;;;;;;4972008;28;20530;-81
2022/12/27 06:06:36;;;;;;;1.05;0.80;;;17.00;50.50;;;;;;4972549;28;20157;-81
2022/12/27 06:09:01;;;;;;;0.82;0.80;;;17.00;50.50;;;;;;4940412;28;20236;-81
2022/12/27 06:11:28;;;;;;;1.10;1.00;;;17.00;50.30;;;;;;4956022;28;20168;-81
2022/12/27 06:13:55;;;;;;;1.15;0.88;;;17.10;50.60;;;;;;4972211;28;20248;-80
2022/12/27 06:16:22;;;;;;;0.80;0.80;;;17.10;50.60;;;;;;4939405;28;20575;-81
2022/12/27 06:18:48;;;;;;;1.00;0.90;;;17.00;50.50;;;;;;4971978;28;20203;-82
2022/12/27 06:21:17;;;;;;;0.93;0.70;;;17.00;50.50;;;;;;4971710;28;20175;-81
2022/12/27 06:23:43;;;;;;;1.05;0.93;;;17.00;50.60;;;;;;4940176;28;20248;-81
2022/12/27 06:26:15;;;;;;;1.20;1.05;;;17.00;50.50;;;;;;4940054;28;20257;-81
2022/12/27 06:28:41;;;;;;;0.70;0.70;;;17.10;50.70;;;;;;4955280;28;20232;-81
2022/12/27 06:31:07;;;;;;;0.77;0.73;;;17.00;50.60;;;;;;4940072;28;20203;-81
2022/12/27 06:33:33;;;;;;;1.23;0.90;;;17.00;50.60;;;;;;4955828;28;20177;-81
2022/12/27 06:36:01;;;;;;;1.17;0.93;;;17.00;50.50;;;;;;4955546;28;20153;-81
2022/12/27 06:38:26;;;;;;;1.00;0.90;;;17.00;50.60;;;;;;4939885;28;20205;-81
2022/12/27 06:40:52;;;;;;;1.10;0.90;;;17.00;51.30;;;;;;4955758;28;20164;-81
2022/12/27 06:43:22;;;;;;;1.30;1.17;;;17.00;50.50;;;;;;4939815;28;20189;-80
2022/12/27 06:45:55;;;;;;;1.10;0.80;;;17.00;50.60;;;;;;4955977;28;20165;-81
2022/12/27 06:48:21;;;;;;;0.80;0.80;;;17.00;50.60;;;;;;4940283;28;20172;-81
2022/12/27 06:50:47;;;;;;;1.08;0.95;;;17.10;50.60;;;;;;4939405;28;20165;-81
2022/12/27 06:53:14;;;;;;;1.13;0.98;;;17.00;50.60;;;;;;4971216;28;20172;-81
2022/12/27 06:55:40;;;;;;;0.70;0.70;;;17.00;50.60;;;;;;4939103;28;20169;-81
2022/12/27 06:58:05;;;;;;;0.70;0.70;;;17.10;50.70;;;;;;4938961;28;20205;-81
2022/12/27 07:00:32;;;;;;;0.70;0.70;;;17.00;50.60;;;;;;4955536;28;20161;-81
2022/12/27 07:03:02;;;;;;;0.75;0.73;;;17.00;50.60;;;;;;4954876;28;20161;-81
2022/12/27 07:05:30;;;;;;;1.38;0.90;;;17.00;50.50;;;;;;4955143;28;20161;-82
2022/12/27 07:07:56;;;;;;;1.00;0.90;;;17.00;50.60;;;;;;4955403;28;20596;-81
2022/12/27 07:10:21;;;;;;;0.77;0.70;;;17.00;50.50;;;;;;4970213;28;20164;-82
2022/12/27 07:12:55;;;;;;;0.80;0.80;;;17.00;50.50;;;;;;4971622;28;20157;-82
2022/12/27 07:15:22;;;;;;;1.23;0.90;;;17.00;50.60;;;;;;4954296;28;20642;-81
2022/12/27 07:17:47;;;;;;;0.80;0.80;;;17.00;50.70;;;;;;4939067;28;20199;-81
2022/12/27 07:20:13;;;;;;;0.98;0.80;;;17.00;50.60;;;;;;4954105;28;20168;-81
2022/12/27 07:22:39;;;;;;;0.93;0.85;;;17.00;50.70;;;;;;4938097;28;20168;-81
2022/12/27 07:25:05;;;;;;;1.35;0.90;;;17.00;50.60;;;;;;4939311;28;20161;-81
2022/12/27 07:27:34;;;;;;;2.20;0.95;;;17.00;50.50;;;;;;4954006;28;20252;-81
2022/12/27 07:30:00;;;;;;;1.60;0.90;;;17.00;50.50;;;;;;4937983;28;20196;-80
2022/12/27 07:32:25;;;;;;;0.93;0.82;;;17.10;50.30;;;;;;4954243;28;20263;-81
2022/12/27 07:34:51;;;;;;;1.13;0.80;;;17.20;50.00;;;;;;4954705;28;20184;-81
2022/12/27 07:37:17;;;;;;;0.80;0.80;;;17.20;49.90;;;;;;4969845;28;20213;-80
2022/12/27 07:39:44;;;;;;;1.20;0.73;;;17.30;49.90;;;;;;4970223;28;20184;-79
2022/12/27 07:42:10;;;;;;;1.08;0.95;;;17.40;49.40;;;;;;4954616;28;20244;-79
2022/12/27 07:44:40;;;;;;;0.88;0.73;;;17.40;49.30;;;;;;4953989;28;20168;-80
2022/12/27 07:47:05;;;;;;;1.08;0.63;;;17.40;49.30;;;;;;4954231;28;20556;-81
2022/12/27 07:49:32;;;;;;;0.90;0.68;;;17.50;49.10;;;;;;4938647;28;20199;-80
2022/12/27 07:51:58;;;;;;;1.55;0.95;;;17.50;49.30;;;;;;4938644;28;20165;-81
2022/12/27 07:54:25;;;;;;;0.73;0.65;;;17.50;49.10;;;;;;4954760;28;20157;-81
2022/12/27 07:56:53;;;;;;;0.70;0.70;;;17.50;49.20;;;;;;4938354;28;20172;-80
2022/12/27 07:59:21;;;;;;;0.75;0.70;;;17.50;49.00;;;;;;4953538;28;20207;-80
2022/12/27 08:04:24;;;;;;;0.70;0.60;;;17.50;49.10;;;;;;4957442;28;20167;-80
2022/12/27 08:06:51;;;;;;;1.33;0.70;;;17.50;49.10;;;;;;4954313;28;20196;-80
2022/12/27 08:09:20;;;;;;;0.80;0.70;;;17.50;49.00;;;;;;4954054;28;20169;-81
2022/12/27 08:11:46;;;;;;;1.00;0.70;;;17.60;48.80;;;;;;4938030;28;20184;-81
2022/12/27 08:14:12;;;;;;;1.42;0.80;;;17.60;48.80;;;;;;4971080;28;20168;-80
2022/12/27 08:16:37;;;;;;;0.80;0.80;;;17.60;48.70;;;;;;4938312;28;20177;-79
2022/12/27 08:19:03;;;;;;;0.60;0.60;;;17.60;48.80;;;;;;4937985;28;20208;-80
2022/12/27 08:21:30;;;;;;;0.55;0.50;;;17.60;48.70;;;;;;4970146;28;20152;-80
2022/12/27 08:23:55;;;;;;;0.70;0.70;;;17.60;48.70;;;;;;4954067;28;20173;-80
2022/12/27 08:26:24;;;;;;;0.70;0.70;;;17.70;48.60;;;;;;4986707;28;20153;-81
2022/12/27 08:28:53;;;;;;;1.13;0.60;;;17.70;48.70;;;;;;4987772;28;20647;-81
2022/12/27 08:31:19;;;;;;;0.70;0.65;;;17.70;48.80;;;;;;4973568;28;20192;-81
2022/12/27 08:33:47;;;;;;;0.60;0.60;;;17.70;48.70;;;;;;4956420;28;20157;-80
2022/12/27 08:36:13;;;;;;;0.95;0.70;;;17.70;48.70;;;;;;4971257;28;20161;-83
2022/12/27 08:38:39;;;;;;;1.83;0.65;;;17.60;48.90;;;;;;4955532;28;20244;-82
2022/12/27 08:41:06;;;;;;;1.70;0.85;;;17.70;48.70;;;;;;4956951;28;20255;-82
2022/12/27 08:43:31;;;;;;;0.80;0.70;;;17.70;48.70;;;;;;4957492;28;20651;-82
2022/12/27 08:46:01;;;;;;;1.45;0.77;;;17.70;48.70;;;;;;4956083;28;20168;-82
2022/12/27 08:48:27;;;;;;;1.05;0.70;;;17.70;48.40;;;;;;4939888;28;20228;-83
2022/12/27 08:50:53;;;;;;;0.70;0.60;;;17.70;48.70;;;;;;4954500;28;20161;-83
2022/12/27 08:53:18;;;;;;;0.57;0.50;;;17.80;48.50;;;;;;4937367;28;20179;-84
2022/12/27 08:55:46;;;;;;;1.10;0.68;;;17.70;48.60;;;;;;4966110;28;20240;-83
2022/12/27 08:58:14;;;;;;;1.17;0.80;;;17.70;48.60;;;;;;4951902;28;20195;-83
2022/12/27 09:00:39;;;;;;;0.60;0.60;;;17.80;48.60;;;;;;4935491;28;20543;-84
2022/12/27 09:03:05;;;;;;;0.73;0.52;;;17.80;48.90;;;;;;4970203;28;20149;-83
2022/12/27 09:05:31;;;;;;;0.70;0.70;;;17.70;49.30;;;;;;4938952;28;20165;-83
2022/12/27 09:07:57;;;;;;;0.80;0.63;;;17.80;49.20;;;;;;4939237;28;20173;-83
2022/12/27 09:10:24;;;;;;;0.90;0.70;;;17.80;49.00;;;;;;4939233;28;20169;-84
2022/12/27 09:12:49;;;;;;;0.88;0.70;;;17.90;49.40;;;;;;4952884;28;20157;-82
2022/12/27 09:15:16;;;;;;;0.75;0.70;;;17.90;49.70;;;;;;4951274;28;20493;-82
2022/12/27 09:17:43;;;;;;;2.83;0.60;;;17.90;49.20;;;;;;4952353;28;20197;-81
2022/12/27 09:20:11;;;;;;;1.77;0.60;;;17.80;49.10;;;;;;4953403;28;20157;-82
2022/12/27 09:22:39;;;;;;;1.20;0.60;;;17.90;49.00;;;;;;4952367;28;20157;-85
2022/12/27 09:25:05;;;;;;;1.83;0.60;;;17.90;48.70;;;;;;4937490;28;20173;-84
2022/12/27 09:27:33;;;;;;;0.82;0.77;;;17.90;49.10;;;;;;4950791;28;20212;-84
2022/12/27 09:29:59;;;;;;;1.00;0.70;;;17.90;49.10;;;;;;4949743;28;20199;-83
2022/12/27 09:32:26;;;;;;;2.05;0.70;;;17.90;48.90;;;;;;4951017;28;20616;-85
2022/12/27 09:34:53;;;;;;;0.77;0.60;;;17.90;49.20;;;;;;4951967;28;20646;-83
2022/12/27 09:37:19;;;;;;;2.25;0.63;;;17.90;49.00;;;;;;4950883;28;20196;-82
2022/12/27 09:39:46;;;;;;;0.73;0.60;;;17.90;48.90;;;;;;4928906;29;20233;-83
2022/12/27 09:42:46;;;;;;;1.70;0.70;;;17.90;48.80;;;;;;4928127;29;20161;-83
2022/12/27 09:45:15;;;;;;;1.48;0.60;;;18.00;48.60;;;;;;4928834;29;20166;-82
2022/12/27 09:47:49;;;;;;;1.67;0.60;;;18.00;48.50;;;;;;4944602;29;20158;-83
2022/12/27 09:50:38;;;;;;;1.95;0.70;;;18.00;48.60;;;;;;4959873;29;20225;-83
2022/12/27 09:53:07;;;;;;;1.13;0.60;;;18.00;48.70;;;;;;4959741;29;20652;-83
2022/12/27 09:55:40;;;;;;;4.53;0.80;;;18.00;48.50;;;;;;4928514;29;20264;-83
2022/12/27 09:58:32;;;;;;;4.63;0.60;;;18.00;48.70;;;;;;4931899;28;20239;-83
2022/12/27 10:00:59;;;;;;;1.95;0.70;;;18.00;48.90;;;;;;4966042;28;20176;-83
2022/12/27 10:03:26;;;;;;;2.45;0.40;;;18.00;48.80;;;;;;4946548;28;20161;-82
2022/12/27 10:06:30;;;;;;;2.05;0.90;;;18.00;49.20;;;;;;4961690;28;20161;-83
2022/12/27 10:09:17;;;;;;;3.63;0.70;;;18.00;49.40;;;;;;4965644;28;20222;-82
2022/12/27 10:12:17;;;;;;;1.27;0.60;;;18.00;49.20;;;;;;4950284;28;20627;-82
2022/12/27 10:15:17;;;;;;;2.22;0.60;;;18.00;49.40;;;;;;4971277;28;20172;-82
2022/12/27 10:18:04;;;;;;;0.90;0.60;;;17.90;49.40;;;;;;4964035;28;20165;-82
2022/12/27 10:20:45;;;;;;;0.50;0.43;;;18.00;49.30;;;;;;4950070;28;20175;-83
2022/12/27 10:23:16;;;;;;;0.95;0.60;;;18.10;49.40;;;;;;4949358;28;20169;-81
2022/12/27 10:25:42;;;;;;;1.52;0.43;;;18.10;49.30;;;;;;4965259;28;20157;-82
2022/12/27 10:28:15;;;;;;;1.95;0.60;;;18.10;49.40;;;;;;4966555;28;20231;-81
2022/12/27 10:30:40;;;;;;;0.70;0.55;;;18.00;48.90;;;;;;4967713;28;20161;-82
2022/12/27 10:33:12;;;;;;;0.65;0.45;;;18.00;49.50;;;;;;4951619;28;20536;-82
2022/12/27 10:35:38;;;;;;;1.23;0.55;;;18.10;49.10;;;;;;4951238;28;20204;-82
2022/12/27 10:38:08;;;;;;;1.65;0.70;;;18.10;49.40;;;;;;4965482;28;20200;-82
2022/12/27 10:40:38;;;;;;;1.83;0.47;;;18.10;49.40;;;;;;4964569;28;20233;-82
2022/12/27 10:43:14;;;;;;;1.10;0.50;;;18.10;49.40;;;;;;4947929;28;20162;-82
2022/12/27 10:45:42;;;;;;;0.90;0.65;;;18.10;49.70;;;;;;4964022;28;20160;-82
2022/12/27 10:48:27;;;;;;;1.65;0.50;;;18.10;49.90;;;;;;4965260;28;20192;-81
2022/12/27 10:50:57;;;;;;;1.42;0.65;;;18.10;49.60;;;;;;4965078;28;20165;-81
2022/12/27 10:53:33;;;;;;;1.90;0.40;;;18.10;49.70;;;;;;4965720;28;20238;-82
2022/12/27 10:56:07;;;;;;;1.65;0.55;;;18.10;50.00;;;;;;4965343;28;20161;-83
2022/12/27 10:58:40;;;;;;;1.27;0.60;;;18.10;50.00;;;;;;4963305;28;20200;-82
2022/12/27 11:01:14;;;;;;;1.20;0.70;;;18.10;50.30;;;;;;4982224;28;20165;-83
2022/12/27 11:03:40;;;;;;;2.15;0.70;;;18.00;50.20;;;;;;4965609;28;20230;-82
2022/12/27 11:06:14;;;;;;;1.85;0.60;;;18.10;50.60;;;;;;4964970;28;20188;-81
2022/12/27 11:08:41;;;;;;;0.85;0.60;;;18.10;50.40;;;;;;4963760;28;20680;-81
2022/12/27 11:11:24;;;;;;;2.00;0.60;;;18.20;50.20;;;;;;4964834;28;20199;-81
2022/12/27 11:13:50;;;;;;;1.30;0.50;;;18.20;50.60;;;;;;4933425;28;20527;-83
2022/12/27 11:16:27;;;;;;;4.72;0.95;;;18.20;50.70;;;;;;4930355;28;20179;-82
2022/12/27 11:18:54;;;;;;;3.25;0.60;;;18.20;50.50;;;;;;4947651;28;20681;-82
2022/12/27 11:21:20;;;;;;;2.15;0.73;;;18.10;50.60;;;;;;4931039;28;20160;-83
2022/12/27 11:23:49;;;;;;;3.08;0.60;;;18.20;51.00;;;;;;4948511;28;20711;-82
2022/12/27 11:26:19;;;;;;;1.67;0.65;;;18.20;51.00;;;;;;4951172;28;20157;-83
2022/12/27 11:28:51;;;;;;;3.10;0.60;;;18.20;51.00;;;;;;4933706;28;20769;-82
2022/12/27 11:31:18;;;;;;;3.72;0.60;;;18.20;50.40;;;;;;4934135;28;20180;-81
2022/12/27 11:33:46;;;;;;;1.10;0.60;;;18.10;50.70;;;;;;4965169;28;20153;-83
2022/12/27 11:36:12;;;;;;;1.85;0.80;;;18.20;50.70;;;;;;4943315;28;20641;-82
2022/12/27 11:38:41;;;;;;;1.52;0.60;;;18.20;50.70;;;;;;4947813;28;20205;-85
2022/12/27 11:41:13;;;;;;;2.85;0.70;;;18.30;50.70;;;;;;4934353;28;20190;-85
2022/12/27 11:43:59;;;;;;;2.38;0.70;;;18.20;50.90;;;;;;4933096;28;20157;-84
2022/12/27 11:46:40;;;;;;;2.30;0.60;;;18.20;51.00;;;;;;4934511;28;20204;-84
2022/12/27 11:49:07;;;;;;;1.00;0.55;;;18.20;51.00;;;;;;4951104;28;20172;-83
2022/12/27 11:51:49;;;;;;;1.77;0.47;;;18.20;51.00;;;;;;4929764;28;20172;-82
2022/12/27 11:54:31;;;;;;;1.35;0.52;;;18.20;50.90;;;;;;4948423;28;20188;-82
2022/12/27 11:57:16;;;;;;;1.02;0.60;;;18.20;51.00;;;;;;4946528;28;20173;-83
2022/12/27 12:00:05;;;;;;;3.67;0.77;;;18.20;50.90;;;;;;4968190;28;20192;-85
2022/12/27 12:02:56;;;;;;;1.35;0.50;;;18.20;51.30;;;;;;4952390;28;20157;-84
2022/12/27 12:05:47;;;;;;;1.13;0.50;;;18.20;51.30;;;;;;4946984;28;20165;-82
2022/12/27 12:08:35;;;;;;;0.47;0.40;;;18.20;51.00;;;;;;4950270;28;20195;-82
2022/12/27 12:11:20;;;;;;;3.78;0.60;;;18.20;51.00;;;;;;4964834;28;20161;-84
2022/12/27 12:14:18;;;;;;;4.00;0.70;;;18.20;51.20;;;;;;4968023;28;20227;-86
2022/12/27 12:17:17;;;;;;;4.40;0.73;;;18.20;51.30;;;;;;4939703;28;20168;-84
2022/12/27 12:20:07;;;;;;;0.90;0.50;;;18.10;51.20;;;;;;4964103;28;20270;-83
2022/12/27 12:22:56;;;;;;;2.38;0.47;;;18.20;51.10;;;;;;4948129;28;20340;-83
2022/12/27 12:25:37;;;;;;;1.38;0.57;;;18.20;51.10;;;;;;4965986;28;20161;-84
2022/12/27 12:28:37;;;;;;;2.47;0.40;;;18.20;51.30;;;;;;4934876;28;20228;-83
2022/12/27 12:31:13;;;;;;;1.90;0.40;;;18.20;51.20;;;;;;4966403;28;20160;-84
2022/12/27 12:33:52;;;;;;;1.95;0.70;;;18.20;51.10;;;;;;4934779;28;20310;-83
2022/12/27 12:36:23;;;;;;;1.75;0.50;;;18.20;51.20;;;;;;4933533;28;20168;-85
2022/12/27 12:38:58;;;;;;;2.05;0.43;;;18.20;51.30;;;;;;4967412;28;20188;-85
2022/12/27 12:41:55;;;;;;;1.45;0.70;;;18.20;51.40;;;;;;4949823;28;20168;-83
2022/12/27 12:44:43;;;;;;;2.58;0.60;;;18.20;51.40;;;;;;4950993;28;20165;-82
2022/12/27 12:47:46;;;;;;;2.72;0.65;;;18.20;51.40;;;;;;4965428;28;20548;-83
2022/12/27 12:50:46;;;;;;;2.45;0.50;;;18.20;51.40;;;;;;4964347;28;20180;-86
2022/12/27 12:53:58;;;;;;;1.02;0.50;;;18.20;51.30;;;;;;4949351;29;20182;-84
2022/12/27 12:57:26;;;;;;;0.93;0.40;;;18.20;51.60;;;;;;4883410;29;20191;-85
2022/12/27 13:06:30;;;;;;;0.70;0.50;;;18.20;51.60;;;;;;5149847;23;20234;-85
2022/12/27 13:09:02;;;;;;;0.70;0.50;;;18.20;51.40;;;;;;4991860;28;20270;-85
2022/12/27 13:11:37;;;;;;;2.88;0.50;;;18.20;51.70;;;;;;4961489;28;20165;-88
2022/12/27 13:14:36;;;;;;;2.10;0.63;;;18.20;51.70;;;;;;4978425;28;20163;-84
2022/12/27 13:17:16;;;;;;;0.95;0.55;;;18.20;51.40;;;;;;4953203;28;20184;-86
2022/12/27 13:20:16;;;;;;;0.73;0.38;;;18.20;51.20;;;;;;4996761;28;20206;-85
2022/12/27 13:23:00;;;;;;;2.80;0.50;;;18.20;51.50;;;;;;5007040;28;20192;-84
2022/12/27 13:25:40;;;;;;;3.00;0.60;;;18.20;51.40;;;;;;4990995;28;20205;-85
2022/12/27 13:28:36;;;;;;;1.75;0.60;;;18.20;51.50;;;;;;4988001;28;20168;-85
2022/12/27 13:31:15;;;;;;;0.98;0.30;;;18.20;51.60;;;;;;4987986;28;20183;-85
2022/12/27 13:34:07;;;;;;;1.63;0.60;;;18.30;51.60;;;;;;4955453;28;20172;-84
2022/12/27 13:36:57;;;;;;;1.55;0.50;;;18.30;52.00;;;;;;4969318;28;20171;-84
2022/12/27 13:40:06;;;;;;;1.85;0.60;;;18.30;51.70;;;;;;4992711;28;20232;-84
2022/12/27 13:43:11;;;;;;;1.38;1.00;;;18.30;51.70;;;;;;5003071;28;20168;-83
2022/12/27 13:46:03;;;;;;;1.67;0.60;;;18.30;51.90;;;;;;4960687;28;20222;-86
2022/12/27 13:49:06;;;;;;;2.50;0.50;;;18.30;51.70;;;;;;4972902;28;20627;-83
2022/12/27 13:51:45;;;;;;;1.00;0.43;;;18.40;52.00;;;;;;4976667;28;20334;-86
2022/12/27 13:54:46;;;;;;;2.45;0.60;;;18.30;51.90;;;;;;4956296;28;20172;-85
2022/12/27 13:57:36;;;;;;;0.95;0.45;;;18.40;51.80;;;;;;4972562;28;20512;-86
2022/12/27 14:00:17;;;;;;;1.25;0.60;;;18.40;51.50;;;;;;4972045;28;20188;-85
2022/12/27 14:03:27;;;;;;;1.35;0.60;;;18.40;52.00;;;;;;4972532;28;20187;-84
2022/12/27 14:06:06;;;;;;;0.65;0.43;;;18.50;52.10;;;;;;4980063;28;20223;-85
2022/12/27 14:09:06;;;;;;;2.03;0.60;;;18.40;52.50;;;;;;4990329;28;20274;-85
2022/12/27 14:12:07;;;;;;;1.30;0.60;;;18.50;52.00;;;;;;5004541;28;20168;-83
2022/12/27 14:14:34;;;;;;;1.83;0.50;;;18.50;51.60;;;;;;4976532;28;20232;-85
2022/12/27 14:17:28;;;;;;;3.65;0.90;;;18.40;52.10;;;;;;4972061;28;20152;-84
2022/12/27 14:20:08;;;;;;;3.63;0.80;;;18.40;52.30;;;;;;4957484;28;20286;-85
2022/12/27 14:22:53;;;;;;;1.50;0.80;;;18.40;52.10;;;;;;4984616;28;20252;-86
2022/12/27 14:25:54;;;;;;;4.53;0.55;;;18.40;52.30;;;;;;4954462;28;20627;-86
2022/12/27 14:28:51;;;;;;;2.25;0.40;;;18.40;52.20;;;;;;4971608;28;20525;-85
2022/12/27 14:32:00;;;;;;;0.90;0.40;;;18.40;52.10;;;;;;4958936;28;20168;-84
2022/12/27 14:34:48;;;;;;;0.88;0.50;;;18.40;52.40;;;;;;4994469;28;20241;-86
2022/12/27 14:37:36;;;;;;;4.43;0.60;;;18.40;52.20;;;;;;4956894;28;20597;-89
2022/12/27 14:40:36;;;;;;;5.47;0.70;;;18.50;52.10;;;;;;4991288;28;20215;-84
2022/12/27 14:43:31;;;;;;;3.95;0.77;;;18.50;51.80;;;;;;4987554;28;20222;-85
2022/12/27 14:46:35;;;;;;;7.18;0.90;;;18.50;51.90;;;;;;4971592;28;20187;-83
2022/12/27 14:49:36;;;;;;;4.47;0.70;;;18.40;52.20;;;;;;4988705;28;20183;-84
2022/12/27 14:52:35;;;;;;;2.60;0.68;;;18.40;52.00;;;;;;4974344;28;20182;-87
2022/12/27 14:55:25;;;;;;;4.82;0.80;;;18.40;51.80;;;;;;4979482;28;20271;-86
2022/12/27 14:58:07;;;;;;;6.22;1.00;;;18.40;51.80;;;;;;4958888;28;20178;-86
2022/12/27 15:01:01;;;;;;;4.85;0.70;;;18.40;51.80;;;;;;4957771;28;20175;-85
2022/12/27 15:03:46;;;;;;;3.25;0.60;;;18.40;51.60;;;;;;4954657;28;20233;-84
2022/12/27 15:06:38;;;;;;;6.03;0.60;;;18.40;51.70;;;;;;4957948;28;20227;-82
2022/12/27 15:09:07;;;;;;;3.88;0.85;;;18.40;51.70;;;;;;4949630;29;20249;-85
2022/12/27 15:11:51;;;;;;;4.97;0.70;;;18.50;51.60;;;;;;4948324;29;20173;-85
2022/12/27 15:14:46;;;;;;;6.32;0.70;;;18.50;51.80;;;;;;4947251;29;20214;-86
2022/12/27 15:17:36;;;;;;;4.82;0.77;;;18.50;51.70;;;;;;4950052;29;20170;-82